QFA662 YPAD-YBBN
Flight info
| Callsign | QFA662 |
|---|---|
| Flight time | N/A |
| Altitude | 39000 |
| Route | AD DCT UPROT Y27 IGIPA Y46 EMTID Y27 BN |
| Aircraft | B738/M-SDE2E3FGHIRWXY/LB1 |
Departure
| Time | 2026-05-04 04:03 |
|---|---|
| Airport | Adelaide International Airport (YPAD) |
Arrival
| Time | N/A |
|---|---|
| Airport | Brisbane International Airport (YBBN) |
| Time | Latitude | Longitude | Altitude | Speed | Heading |
|---|---|---|---|---|---|
| 2026-05-04 03:35 | -34.94137 | 138.53556 | 25 ft | 0 kts | 320° |
| 2026-05-04 03:56 | -34.94139 | 138.53559 | 25 ft | 3 kts | 321° |
| 2026-05-04 03:56 | -34.94162 | 138.53576 | 30 ft | 4 kts | 334° |
| 2026-05-04 03:56 | -34.94182 | 138.53592 | 26 ft | 4 kts | 291° |
| 2026-05-04 03:56 | -34.94186 | 138.53618 | 29 ft | 4 kts | 265° |
| 2026-05-04 03:57 | -34.94185 | 138.53633 | 28 ft | 0 kts | 269° |
| 2026-05-04 03:59 | -34.94198 | 138.53602 | 27 ft | 8 kts | 212° |
| 2026-05-04 03:59 | -34.94239 | 138.53652 | 26 ft | 12 kts | 141° |
| 2026-05-04 03:59 | -34.94232 | 138.53739 | 28 ft | 13 kts | 54° |
| 2026-05-04 04:00 | -34.94176 | 138.53824 | 25 ft | 13 kts | 50° |
| 2026-05-04 04:00 | -34.94120 | 138.53904 | 25 ft | 12 kts | 50° |
| 2026-05-04 04:00 | -34.94065 | 138.53985 | 25 ft | 12 kts | 50° |
| 2026-05-04 04:00 | -34.94011 | 138.54063 | 26 ft | 12 kts | 50° |
| 2026-05-04 04:01 | -34.93959 | 138.54139 | 25 ft | 11 kts | 51° |
| 2026-05-04 04:01 | -34.93976 | 138.54224 | 25 ft | 12 kts | 142° |
| 2026-05-04 04:01 | -34.93984 | 138.54231 | 27 ft | 0 kts | 142° |
| 2026-05-04 04:01 | -34.93988 | 138.54234 | 27 ft | 2 kts | 143° |
| 2026-05-04 04:02 | -34.94012 | 138.54258 | 28 ft | 8 kts | 141° |
| 2026-05-04 04:02 | -34.94078 | 138.54298 | 25 ft | 13 kts | 196° |
| 2026-05-04 04:02 | -34.94105 | 138.54266 | 28 ft | 0 kts | 230° |
| 2026-05-04 04:02 | -34.94120 | 138.54243 | 27 ft | 22 kts | 230° |
| 2026-05-04 04:03 | -34.94375 | 138.53874 | 25 ft | 90 kts | 230° |
| 2026-05-04 04:03 | -34.94898 | 138.53110 | 40 ft | 142 kts | 230° |
| 2026-05-04 04:03 | -34.95552 | 138.52184 | 622 ft | 143 kts | 230° |
| 2026-05-04 04:03 | -34.96242 | 138.51193 | 1088 ft | 155 kts | 231° |
| 2026-05-04 04:04 | -34.96934 | 138.50175 | 1670 ft | 157 kts | 232° |
| 2026-05-04 04:04 | -34.97664 | 138.49117 | 2111 ft | 177 kts | 231° |
| 2026-05-04 04:04 | -34.98508 | 138.47889 | 2367 ft | 199 kts | 232° |
| 2026-05-04 04:04 | -34.99428 | 138.46550 | 2682 ft | 213 kts | 231° |
| 2026-05-04 04:05 | -35.00394 | 138.45144 | 3193 ft | 216 kts | 231° |
| 2026-05-04 04:05 | -35.01360 | 138.43736 | 3776 ft | 216 kts | 232° |
| 2026-05-04 04:05 | -35.02399 | 138.42418 | 4211 ft | 225 kts | 216° |
| 2026-05-04 04:05 | -35.03896 | 138.41853 | 4800 ft | 231 kts | 187° |
| 2026-05-04 04:06 | -35.05512 | 138.42249 | 5241 ft | 246 kts | 159° |
| 2026-05-04 04:06 | -35.06963 | 138.43403 | 5737 ft | 253 kts | 147° |
| 2026-05-04 04:06 | -35.08324 | 138.44746 | 6378 ft | 252 kts | 147° |
| 2026-05-04 04:06 | -35.09704 | 138.46126 | 6745 ft | 262 kts | 140° |
| 2026-05-04 04:07 | -35.10636 | 138.48087 | 7183 ft | 279 kts | 106° |
| 2026-05-04 04:07 | -35.10705 | 138.50536 | 7474 ft | 300 kts | 86° |
| 2026-05-04 04:07 | -35.10507 | 138.53113 | 8125 ft | 306 kts | 86° |
| 2026-05-04 04:07 | -35.10308 | 138.55709 | 8958 ft | 308 kts | 86° |
| 2026-05-04 04:08 | -35.10124 | 138.58325 | 9752 ft | 311 kts | 85° |
| 2026-05-04 04:08 | -35.09585 | 138.60901 | 10356 ft | 323 kts | 62° |
| 2026-05-04 04:08 | -35.08193 | 138.63151 | 10624 ft | 341 kts | 45° |
| 2026-05-04 04:08 | -35.06550 | 138.65294 | 11211 ft | 350 kts | 45° |
| 2026-05-04 04:09 | -35.04860 | 138.67478 | 11911 ft | 356 kts | 45° |
| 2026-05-04 04:09 | -35.03158 | 138.69697 | 12662 ft | 360 kts | 45° |
| 2026-05-04 04:09 | -35.01442 | 138.71959 | 13410 ft | 366 kts | 46° |
| 2026-05-04 04:09 | -34.99701 | 138.74269 | 14121 ft | 372 kts | 46° |
| 2026-05-04 04:10 | -34.97939 | 138.76614 | 14820 ft | 378 kts | 46° |
| 2026-05-04 04:10 | -34.96174 | 138.78960 | 15540 ft | 382 kts | 46° |
| 2026-05-04 04:10 | -34.94363 | 138.81361 | 16266 ft | 387 kts | 46° |
| 2026-05-04 04:10 | -34.92522 | 138.83799 | 16982 ft | 392 kts | 46° |
| 2026-05-04 04:11 | -34.90661 | 138.86262 | 17676 ft | 398 kts | 46° |
| 2026-05-04 04:11 | -34.88777 | 138.88754 | 18439 ft | 401 kts | 46° |
| 2026-05-04 04:11 | -34.86877 | 138.91264 | 19100 ft | 404 kts | 46° |
| 2026-05-04 04:11 | -34.84961 | 138.93796 | 19686 ft | 409 kts | 47° |
| 2026-05-04 04:12 | -34.83015 | 138.96365 | 20271 ft | 414 kts | 47° |
| 2026-05-04 04:12 | -34.81074 | 138.98927 | 20858 ft | 419 kts | 47° |
| 2026-05-04 04:12 | -34.79086 | 139.01548 | 21449 ft | 423 kts | 47° |
| 2026-05-04 04:12 | -34.77078 | 139.04192 | 21997 ft | 428 kts | 47° |
| 2026-05-04 04:13 | -34.75045 | 139.06869 | 22547 ft | 434 kts | 47° |
| 2026-05-04 04:13 | -34.72985 | 139.09579 | 23150 ft | 438 kts | 46° |
| 2026-05-04 04:13 | -34.70913 | 139.12302 | 23724 ft | 441 kts | 46° |
| 2026-05-04 04:13 | -34.68819 | 139.15053 | 24187 ft | 445 kts | 46° |
| 2026-05-04 04:14 | -34.66707 | 139.17824 | 24663 ft | 448 kts | 46° |
| 2026-05-04 04:14 | -34.64582 | 139.20610 | 25107 ft | 451 kts | 45° |
| 2026-05-04 04:14 | -34.62445 | 139.23412 | 25604 ft | 453 kts | 45° |
| 2026-05-04 04:14 | -34.60295 | 139.26227 | 26069 ft | 456 kts | 45° |
| 2026-05-04 04:15 | -34.58132 | 139.29058 | 26512 ft | 459 kts | 46° |
| 2026-05-04 04:15 | -34.56239 | 139.32204 | 26883 ft | 465 kts | 64° |
| 2026-05-04 04:15 | -34.55052 | 139.35810 | 27339 ft | 466 kts | 71° |
| 2026-05-04 04:15 | -34.53933 | 139.39517 | 27769 ft | 469 kts | 70° |
| 2026-05-04 04:16 | -34.52803 | 139.43252 | 28165 ft | 473 kts | 70° |
| 2026-05-04 04:16 | -34.51654 | 139.46996 | 28557 ft | 476 kts | 70° |
| 2026-05-04 04:16 | -34.50480 | 139.50766 | 28956 ft | 479 kts | 69° |
| 2026-05-04 04:16 | -34.49287 | 139.54554 | 29361 ft | 482 kts | 69° |
| 2026-05-04 04:17 | -34.48079 | 139.58361 | 29714 ft | 485 kts | 69° |
| 2026-05-04 04:17 | -34.46859 | 139.62191 | 30075 ft | 488 kts | 69° |
| 2026-05-04 04:17 | -34.45631 | 139.66039 | 30395 ft | 491 kts | 69° |
| 2026-05-04 04:17 | -34.44396 | 139.69905 | 30731 ft | 491 kts | 68° |
| 2026-05-04 04:18 | -34.43163 | 139.73762 | 31118 ft | 492 kts | 68° |
| 2026-05-04 04:18 | -34.41926 | 139.77630 | 31428 ft | 494 kts | 68° |
| 2026-05-04 04:18 | -34.40691 | 139.81486 | 31644 ft | 498 kts | 68° |
| 2026-05-04 04:18 | -34.39433 | 139.85408 | 31919 ft | 501 kts | 68° |
| 2026-05-04 04:19 | -34.38170 | 139.89343 | 32224 ft | 502 kts | 68° |
| 2026-05-04 04:19 | -34.36903 | 139.93287 | 32536 ft | 503 kts | 67° |
| 2026-05-04 04:19 | -34.35632 | 139.97237 | 32869 ft | 503 kts | 67° |
| 2026-05-04 04:19 | -34.34364 | 140.01176 | 33299 ft | 501 kts | 66° |
| 2026-05-04 04:20 | -34.33100 | 140.05093 | 33717 ft | 499 kts | 66° |
| 2026-05-04 04:20 | -34.31856 | 140.08946 | 34081 ft | 498 kts | 66° |
| 2026-05-04 04:20 | -34.30596 | 140.12841 | 34361 ft | 498 kts | 66° |
| 2026-05-04 04:20 | -34.29331 | 140.16747 | 34624 ft | 498 kts | 66° |
| 2026-05-04 04:21 | -34.28067 | 140.20645 | 34919 ft | 498 kts | 65° |
| 2026-05-04 04:21 | -34.26799 | 140.24550 | 35166 ft | 497 kts | 65° |
| 2026-05-04 04:21 | -34.25543 | 140.28417 | 35638 ft | 492 kts | 65° |
| 2026-05-04 04:21 | -34.24295 | 140.32256 | 35954 ft | 491 kts | 64° |
| 2026-05-04 04:22 | -34.23039 | 140.36107 | 36128 ft | 493 kts | 64° |
| 2026-05-04 04:22 | -34.21776 | 140.39966 | 36322 ft | 494 kts | 64° |
| 2026-05-04 04:22 | -34.20512 | 140.43827 | 36614 ft | 493 kts | 64° |
| 2026-05-04 04:22 | -34.19251 | 140.47680 | 36914 ft | 492 kts | 64° |
| 2026-05-04 04:23 | -34.17994 | 140.51515 | 37138 ft | 491 kts | 64° |
| 2026-05-04 04:23 | -34.16736 | 140.55349 | 37416 ft | 491 kts | 63° |
| 2026-05-04 04:23 | -34.15903 | 140.57885 | 37596 ft | 490 kts | 63° |
| 2026-05-04 04:23 | -34.14237 | 140.62951 | 37888 ft | 490 kts | 63° |
| 2026-05-04 04:24 | -34.12977 | 140.66774 | 38098 ft | 491 kts | 63° |
| 2026-05-04 04:24 | -34.11713 | 140.70606 | 38269 ft | 492 kts | 63° |
| 2026-05-04 04:24 | -34.10858 | 140.73196 | 38399 ft | 492 kts | 63° |
| 2026-05-04 04:24 | -34.09606 | 140.76982 | 38631 ft | 491 kts | 63° |
| 2026-05-04 04:25 | -34.08341 | 140.80810 | 38806 ft | 491 kts | 62° |
| 2026-05-04 04:25 | -34.06650 | 140.85916 | 39010 ft | 491 kts | 62° |
| 2026-05-04 04:25 | -34.04530 | 140.92297 | 39014 ft | 495 kts | 62° |
| 2026-05-04 04:26 | -34.01978 | 140.99970 | 39015 ft | 491 kts | 62° |
| 2026-05-04 04:26 | -33.99434 | 141.07605 | 39016 ft | 488 kts | 62° |
| 2026-05-04 04:27 | -33.96904 | 141.15175 | 39017 ft | 486 kts | 62° |
| 2026-05-04 04:27 | -33.94375 | 141.22719 | 39018 ft | 485 kts | 62° |
| 2026-05-04 04:28 | -33.91845 | 141.30247 | 39025 ft | 485 kts | 62° |
| 2026-05-04 04:28 | -33.89306 | 141.37782 | 39027 ft | 486 kts | 62° |
| 2026-05-04 04:29 | -33.86758 | 141.45330 | 39032 ft | 488 kts | 62° |
| 2026-05-04 04:29 | -33.84195 | 141.52903 | 39035 ft | 490 kts | 62° |
| 2026-05-04 04:30 | -33.81613 | 141.60516 | 39032 ft | 492 kts | 62° |
| 2026-05-04 04:30 | -33.79033 | 141.68107 | 39005 ft | 494 kts | 62° |
| 2026-05-04 04:31 | -33.76427 | 141.75760 | 39023 ft | 495 kts | 62° |
| 2026-05-04 04:31 | -33.73814 | 141.83425 | 39037 ft | 496 kts | 62° |
| 2026-05-04 04:32 | -33.71254 | 141.91138 | 39024 ft | 497 kts | 62° |
| 2026-05-04 04:32 | -33.68714 | 141.98872 | 39011 ft | 497 kts | 62° |
| 2026-05-04 04:33 | -33.66170 | 142.06584 | 39029 ft | 496 kts | 62° |
| 2026-05-04 04:33 | -33.63637 | 142.14217 | 39034 ft | 495 kts | 62° |
| 2026-05-04 04:34 | -33.61081 | 142.21888 | 39030 ft | 495 kts | 62° |
| 2026-05-04 04:34 | -33.58527 | 142.29538 | 39015 ft | 493 kts | 61° |
| 2026-05-04 04:35 | -33.55972 | 142.37171 | 39024 ft | 493 kts | 61° |
| 2026-05-04 04:35 | -33.53415 | 142.44792 | 39033 ft | 492 kts | 61° |
| 2026-05-04 04:36 | -33.50856 | 142.52402 | 39034 ft | 492 kts | 61° |
| 2026-05-04 04:36 | -33.48291 | 142.60011 | 39018 ft | 492 kts | 61° |
| 2026-05-04 04:37 | -33.43155 | 142.75192 | 39035 ft | 492 kts | 61° |
| 2026-05-04 04:38 | -33.40575 | 142.82789 | 39038 ft | 492 kts | 60° |
| 2026-05-04 04:38 | -33.38009 | 142.90329 | 39024 ft | 492 kts | 60° |
| 2026-05-04 04:39 | -33.35404 | 142.97965 | 39036 ft | 492 kts | 60° |
| 2026-05-04 04:39 | -33.32831 | 143.05490 | 39040 ft | 493 kts | 60° |
| 2026-05-04 04:40 | -33.30232 | 143.13071 | 39042 ft | 493 kts | 60° |
| 2026-05-04 04:40 | -33.27630 | 143.20645 | 39027 ft | 493 kts | 60° |
| 2026-05-04 04:41 | -33.25022 | 143.28218 | 39039 ft | 493 kts | 60° |
| 2026-05-04 04:41 | -33.22409 | 143.35788 | 39042 ft | 492 kts | 60° |
| 2026-05-04 04:42 | -33.19789 | 143.43360 | 39046 ft | 493 kts | 60° |
| 2026-05-04 04:42 | -33.17167 | 143.50921 | 39025 ft | 493 kts | 60° |
| 2026-05-04 04:43 | -33.14555 | 143.58434 | 39039 ft | 493 kts | 60° |
| 2026-05-04 04:43 | -33.11928 | 143.65976 | 39054 ft | 493 kts | 60° |
| 2026-05-04 04:44 | -33.09289 | 143.73531 | 39049 ft | 493 kts | 60° |
| 2026-05-04 04:44 | -33.06648 | 143.81076 | 39046 ft | 493 kts | 59° |
| 2026-05-04 04:45 | -33.04003 | 143.88618 | 39050 ft | 493 kts | 59° |
| 2026-05-04 04:47 | -32.93022 | 144.13582 | 39039 ft | 482 kts | 48° |
| 2026-05-04 04:47 | -32.89424 | 144.20321 | 39050 ft | 483 kts | 49° |
| 2026-05-04 04:48 | -32.85902 | 144.27010 | 39061 ft | 484 kts | 49° |
| 2026-05-04 04:49 | -32.76946 | 144.44103 | 39060 ft | 486 kts | 49° |
| 2026-05-04 04:49 | -32.73357 | 144.50927 | 39052 ft | 487 kts | 49° |
| 2026-05-04 04:50 | -32.69766 | 144.57742 | 39051 ft | 487 kts | 49° |
| 2026-05-04 04:50 | -32.66173 | 144.64545 | 39039 ft | 486 kts | 49° |
| 2026-05-04 04:51 | -32.62578 | 144.71343 | 39054 ft | 485 kts | 49° |
| 2026-05-04 04:51 | -32.58988 | 144.78118 | 39051 ft | 485 kts | 49° |
| 2026-05-04 04:52 | -32.55397 | 144.84882 | 39059 ft | 484 kts | 49° |
| 2026-05-04 04:52 | -32.51828 | 144.91592 | 39048 ft | 484 kts | 48° |
| 2026-05-04 04:53 | -32.48240 | 144.98325 | 39052 ft | 483 kts | 48° |
| 2026-05-04 04:53 | -32.44650 | 145.05051 | 39052 ft | 483 kts | 48° |
| 2026-05-04 04:54 | -32.41059 | 145.11765 | 39058 ft | 482 kts | 48° |
| 2026-05-04 04:54 | -32.37466 | 145.18472 | 39051 ft | 482 kts | 47° |
| 2026-05-04 04:55 | -32.33873 | 145.25167 | 39054 ft | 482 kts | 47° |
| 2026-05-04 04:55 | -32.30273 | 145.31863 | 39058 ft | 482 kts | 47° |
| 2026-05-04 04:56 | -32.26672 | 145.38549 | 39062 ft | 482 kts | 47° |
| 2026-05-04 04:56 | -32.23061 | 145.45241 | 39056 ft | 483 kts | 47° |
| 2026-05-04 04:57 | -32.19466 | 145.51892 | 39058 ft | 483 kts | 47° |
| 2026-05-04 04:57 | -32.15841 | 145.58586 | 39066 ft | 484 kts | 47° |
| 2026-05-04 04:58 | -32.12201 | 145.65297 | 39060 ft | 485 kts | 47° |
| 2026-05-04 04:58 | -32.08559 | 145.72000 | 39054 ft | 486 kts | 46° |
| 2026-05-04 04:59 | -32.04905 | 145.78713 | 39048 ft | 487 kts | 46° |
| 2026-05-04 04:59 | -32.01242 | 145.85431 | 39056 ft | 487 kts | 46° |
| 2026-05-04 05:00 | -31.97575 | 145.92144 | 39062 ft | 488 kts | 46° |
| 2026-05-04 05:01 | -31.92055 | 146.02228 | 39058 ft | 489 kts | 46° |
| 2026-05-04 05:01 | -31.88360 | 146.08961 | 39053 ft | 490 kts | 45° |
| 2026-05-04 05:02 | -31.84658 | 146.15698 | 39063 ft | 491 kts | 45° |
| 2026-05-04 05:02 | -31.80972 | 146.22392 | 39030 ft | 491 kts | 45° |
| 2026-05-04 05:03 | -31.77253 | 146.29137 | 39054 ft | 492 kts | 45° |
| 2026-05-04 05:04 | -31.69794 | 146.42624 | 39060 ft | 492 kts | 45° |
| 2026-05-04 05:04 | -31.66053 | 146.49371 | 39035 ft | 493 kts | 44° |
| 2026-05-04 05:06 | -31.51103 | 146.76219 | 39025 ft | 491 kts | 44° |
| 2026-05-04 05:07 | -31.47361 | 146.82911 | 39053 ft | 491 kts | 44° |
| 2026-05-04 05:07 | -31.43614 | 146.89598 | 39059 ft | 491 kts | 44° |
| 2026-05-04 05:09 | -31.27343 | 147.18503 | 39063 ft | 491 kts | 44° |
| 2026-05-04 05:10 | -31.23574 | 147.25168 | 39054 ft | 492 kts | 44° |
| 2026-05-04 05:10 | -31.19791 | 147.31848 | 39030 ft | 492 kts | 43° |
| 2026-05-04 05:11 | -31.16018 | 147.38501 | 39037 ft | 491 kts | 43° |
| 2026-05-04 05:11 | -31.12241 | 147.45146 | 39049 ft | 491 kts | 43° |
| 2026-05-04 05:12 | -31.08460 | 147.51787 | 39046 ft | 491 kts | 43° |
| 2026-05-04 05:12 | -31.04678 | 147.58419 | 39016 ft | 491 kts | 43° |
| 2026-05-04 05:13 | -31.00891 | 147.65049 | 39038 ft | 491 kts | 43° |
| 2026-05-04 05:13 | -30.97099 | 147.71675 | 39040 ft | 491 kts | 43° |
| 2026-05-04 05:14 | -30.93304 | 147.78298 | 39041 ft | 492 kts | 43° |
| 2026-05-04 05:14 | -30.89518 | 147.84894 | 39040 ft | 493 kts | 43° |
| 2026-05-04 05:15 | -30.85698 | 147.91536 | 39043 ft | 495 kts | 43° |
| 2026-05-04 05:15 | -30.81841 | 147.98222 | 39021 ft | 498 kts | 43° |
| 2026-05-04 05:16 | -30.77986 | 148.04906 | 39029 ft | 498 kts | 43° |
| 2026-05-04 05:16 | -30.74129 | 148.11586 | 39031 ft | 497 kts | 43° |
| 2026-05-04 05:17 | -30.70276 | 148.18246 | 39021 ft | 496 kts | 43° |
| 2026-05-04 05:17 | -30.66423 | 148.24895 | 39025 ft | 495 kts | 43° |
| 2026-05-04 05:18 | -30.62572 | 148.31526 | 39030 ft | 495 kts | 43° |
| 2026-05-04 05:18 | -30.58720 | 148.38147 | 39027 ft | 494 kts | 43° |
| 2026-05-04 05:19 | -30.54868 | 148.44759 | 39013 ft | 493 kts | 43° |
| 2026-05-04 05:19 | -30.51023 | 148.51348 | 39017 ft | 493 kts | 43° |
| 2026-05-04 05:20 | -30.47177 | 148.57926 | 39028 ft | 493 kts | 43° |
| 2026-05-04 05:20 | -30.43323 | 148.64505 | 39027 ft | 493 kts | 43° |
| 2026-05-04 05:21 | -30.39468 | 148.71078 | 38995 ft | 493 kts | 43° |
| 2026-05-04 05:21 | -30.35613 | 148.77641 | 39008 ft | 493 kts | 43° |
| 2026-05-04 05:22 | -30.31754 | 148.84200 | 39022 ft | 493 kts | 43° |
| 2026-05-04 05:22 | -30.27891 | 148.90753 | 39024 ft | 493 kts | 43° |
| 2026-05-04 05:23 | -30.24021 | 148.97308 | 39027 ft | 494 kts | 43° |
| 2026-05-04 05:23 | -30.20174 | 149.03815 | 39024 ft | 493 kts | 43° |
| 2026-05-04 05:24 | -30.16293 | 149.10368 | 39017 ft | 493 kts | 43° |
| 2026-05-04 05:24 | -30.12409 | 149.16916 | 39025 ft | 494 kts | 43° |
| 2026-05-04 05:25 | -30.08525 | 149.23452 | 39026 ft | 494 kts | 43° |
| 2026-05-04 05:25 | -30.04627 | 149.30002 | 39009 ft | 494 kts | 43° |
| 2026-05-04 05:26 | -30.00731 | 149.36539 | 39021 ft | 494 kts | 43° |
| 2026-05-04 05:26 | -29.96834 | 149.43066 | 39028 ft | 494 kts | 43° |
| 2026-05-04 05:28 | -29.81261 | 149.69046 | 39030 ft | 492 kts | 43° |
| 2026-05-04 05:29 | -29.77360 | 149.75529 | 39034 ft | 492 kts | 43° |
| 2026-05-04 05:29 | -29.73455 | 149.82010 | 39031 ft | 492 kts | 43° |
| 2026-05-04 05:31 | -29.59633 | 150.04776 | 39044 ft | 506 kts | 43° |
| 2026-05-04 05:31 | -29.57610 | 150.08105 | 39043 ft | 510 kts | 43° |
| 2026-05-04 05:32 | -29.53527 | 150.14836 | 39011 ft | 518 kts | 45° |
| 2026-05-04 05:33 | -29.48182 | 150.25805 | 39023 ft | 531 kts | 52° |
| 2026-05-04 05:33 | -29.44709 | 150.33271 | 39035 ft | 530 kts | 51° |
| 2026-05-04 05:34 | -29.41160 | 150.40666 | 39037 ft | 529 kts | 51° |
| 2026-05-04 05:34 | -29.37603 | 150.48040 | 39031 ft | 528 kts | 51° |
| 2026-05-04 05:35 | -29.34053 | 150.55399 | 39043 ft | 527 kts | 51° |
| 2026-05-04 05:35 | -29.30507 | 150.62740 | 39046 ft | 526 kts | 51° |
| 2026-05-04 05:36 | -29.26958 | 150.70072 | 39045 ft | 526 kts | 51° |
| 2026-05-04 05:36 | -29.23411 | 150.77387 | 39047 ft | 525 kts | 51° |
| 2026-05-04 05:37 | -29.19865 | 150.84687 | 39025 ft | 524 kts | 51° |
| 2026-05-04 05:37 | -29.16341 | 150.91928 | 39046 ft | 524 kts | 51° |
| 2026-05-04 05:38 | -29.11023 | 151.02835 | 39054 ft | 523 kts | 51° |
| 2026-05-04 05:38 | -29.07468 | 151.10106 | 39052 ft | 523 kts | 51° |
| 2026-05-04 05:39 | -29.02126 | 151.20979 | 39032 ft | 523 kts | 51° |
| 2026-05-04 05:40 | -28.96783 | 151.31830 | 39059 ft | 522 kts | 51° |
| 2026-05-04 05:40 | -28.93213 | 151.39064 | 39060 ft | 523 kts | 51° |
| 2026-05-04 05:41 | -28.89635 | 151.46305 | 39067 ft | 523 kts | 51° |
| 2026-05-04 05:41 | -28.86070 | 151.53510 | 39073 ft | 524 kts | 51° |
| 2026-05-04 05:42 | -28.82249 | 151.60510 | 39078 ft | 511 kts | 40° |
| 2026-05-04 05:42 | -28.79928 | 151.63518 | 38759 ft | 503 kts | 35° |
| 2026-05-04 05:42 | -28.77464 | 151.66334 | 38223 ft | 500 kts | 33° |
| 2026-05-04 05:43 | -28.74952 | 151.69060 | 37736 ft | 498 kts | 32° |
| 2026-05-04 05:43 | -28.72422 | 151.71777 | 37248 ft | 499 kts | 32° |
| 2026-05-04 05:43 | -28.69902 | 151.74509 | 36772 ft | 501 kts | 33° |
| 2026-05-04 05:45 | -28.52793 | 151.93718 | 32161 ft | 474 kts | 35° |
| 2026-05-04 05:45 | -28.50458 | 151.96344 | 31435 ft | 472 kts | 35° |
| 2026-05-04 05:47 | -28.33945 | 152.14821 | 26205 ft | 474 kts | 38° |
| 2026-05-04 05:47 | -28.31588 | 152.17453 | 25514 ft | 477 kts | 38° |
| 2026-05-04 05:47 | -28.29230 | 152.20085 | 24825 ft | 472 kts | 39° |
| 2026-05-04 05:48 | -28.26905 | 152.22684 | 24147 ft | 465 kts | 39° |
| 2026-05-04 05:48 | -28.24620 | 152.25238 | 23446 ft | 458 kts | 39° |
| 2026-05-04 05:48 | -28.22359 | 152.27760 | 22655 ft | 453 kts | 39° |
| 2026-05-04 05:48 | -28.20128 | 152.30246 | 21879 ft | 447 kts | 39° |
| 2026-05-04 05:49 | -28.17923 | 152.32699 | 21141 ft | 441 kts | 39° |
| 2026-05-04 05:49 | -28.15741 | 152.35126 | 20431 ft | 436 kts | 40° |
| 2026-05-04 05:49 | -28.13611 | 152.37494 | 19726 ft | 432 kts | 40° |
| 2026-05-04 05:49 | -28.11474 | 152.39868 | 19045 ft | 428 kts | 40° |
| 2026-05-04 05:51 | -27.97787 | 152.55044 | 13982 ft | 363 kts | 41° |
| 2026-05-04 05:51 | -27.95994 | 152.57027 | 13231 ft | 357 kts | 42° |
| 2026-05-04 05:52 | -27.94174 | 152.58905 | 12558 ft | 348 kts | 32° |
| 2026-05-04 05:52 | -27.92069 | 152.60015 | 12327 ft | 324 kts | 12° |
| 2026-05-04 05:52 | -27.89905 | 152.60286 | 12063 ft | 305 kts | 355° |
| 2026-05-04 05:52 | -27.87881 | 152.59845 | 11800 ft | 289 kts | 339° |
| 2026-05-04 05:53 | -27.86158 | 152.58852 | 11558 ft | 277 kts | 324° |
| 2026-05-04 05:54 | -27.84940 | 152.46597 | 11035 ft | 243 kts | 226° |
| 2026-05-04 05:55 | -27.86359 | 152.45544 | 11083 ft | 248 kts | 205° |
| 2026-05-04 05:55 | -27.87444 | 152.45095 | 11079 ft | 252 kts | 198° |
| 2026-05-04 05:55 | -27.89730 | 152.44712 | 11074 ft | 254 kts | 182° |
| 2026-05-04 05:55 | -27.90938 | 152.44801 | 11075 ft | 255 kts | 173° |
| 2026-05-04 05:56 | -27.92653 | 152.45326 | 11076 ft | 257 kts | 158° |
| 2026-05-04 05:56 | -27.94203 | 152.46343 | 11070 ft | 258 kts | 142° |
| 2026-05-04 05:56 | -27.95451 | 152.47798 | 11076 ft | 259 kts | 126° |
| 2026-05-04 05:56 | -27.96307 | 152.49580 | 11082 ft | 259 kts | 110° |
| 2026-05-04 05:57 | -27.96717 | 152.51525 | 11073 ft | 258 kts | 94° |
| 2026-05-04 05:57 | -27.96665 | 152.53572 | 11075 ft | 256 kts | 79° |
| 2026-05-04 05:57 | -27.96255 | 152.55524 | 11080 ft | 255 kts | 69° |
| 2026-05-04 05:57 | -27.95523 | 152.57307 | 11065 ft | 253 kts | 54° |
| 2026-05-04 05:58 | -27.94486 | 152.58919 | 11083 ft | 262 kts | 58° |
| 2026-05-04 05:58 | -27.93623 | 152.60886 | 11094 ft | 293 kts | 63° |
| 2026-05-04 05:58 | -27.92734 | 152.62986 | 11079 ft | 298 kts | 62° |
| 2026-05-04 05:58 | -27.91817 | 152.65100 | 11071 ft | 299 kts | 62° |
| 2026-05-04 05:59 | -27.90889 | 152.67199 | 11060 ft | 298 kts | 62° |
| 2026-05-04 05:59 | -27.89952 | 152.69291 | 11028 ft | 298 kts | 62° |
| 2026-05-04 05:59 | -27.89001 | 152.71395 | 10539 ft | 306 kts | 61° |
| 2026-05-04 05:59 | -27.88043 | 152.73508 | 10204 ft | 296 kts | 62° |
| 2026-05-04 06:00 | -27.87119 | 152.75541 | 9948 ft | 285 kts | 62° |
| 2026-05-04 06:00 | -27.86227 | 152.77502 | 9611 ft | 277 kts | 62° |
| 2026-05-04 06:00 | -27.85348 | 152.79435 | 9326 ft | 276 kts | 62° |
| 2026-05-04 06:00 | -27.84471 | 152.81360 | 9045 ft | 274 kts | 62° |
| 2026-05-04 06:01 | -27.83610 | 152.83251 | 8754 ft | 273 kts | 62° |
| 2026-05-04 06:01 | -27.82743 | 152.85153 | 8467 ft | 271 kts | 62° |
| 2026-05-04 06:03 | -27.72371 | 152.93401 | 6359 ft | 268 kts | 27° |
| 2026-05-04 06:03 | -27.70711 | 152.94352 | 6042 ft | 267 kts | 27° |
| 2026-05-04 06:05 | -27.59497 | 153.00821 | 3921 ft | 239 kts | 29° |
| 2026-05-04 06:05 | -27.56627 | 153.02481 | 3437 ft | 223 kts | 28° |
| 2026-05-04 06:05 | -27.55261 | 153.03233 | 3231 ft | 215 kts | 28° |
| 2026-05-04 06:06 | -27.53956 | 153.03972 | 2971 ft | 205 kts | 29° |
| 2026-05-04 06:06 | -27.52721 | 153.04679 | 2702 ft | 191 kts | 29° |
| 2026-05-04 06:06 | -27.51579 | 153.05333 | 2456 ft | 177 kts | 30° |
| 2026-05-04 06:06 | -27.50540 | 153.05928 | 2279 ft | 156 kts | 30° |
| 2026-05-04 06:07 | -27.49611 | 153.06461 | 2045 ft | 145 kts | 31° |
| 2026-05-04 06:07 | -27.48728 | 153.06969 | 1854 ft | 141 kts | 31° |
| 2026-05-04 06:07 | -27.47848 | 153.07475 | 1675 ft | 143 kts | 30° |
| 2026-05-04 06:07 | -27.46955 | 153.07987 | 1494 ft | 145 kts | 30° |
| 2026-05-04 06:08 | -27.46055 | 153.08503 | 1299 ft | 145 kts | 31° |
| 2026-05-04 06:08 | -27.45159 | 153.09017 | 1094 ft | 143 kts | 30° |
| 2026-05-04 06:08 | -27.44279 | 153.09524 | 908 ft | 143 kts | 30° |
| 2026-05-04 06:08 | -27.43396 | 153.10031 | 714 ft | 143 kts | 30° |
| 2026-05-04 06:09 | -27.42506 | 153.10541 | 523 ft | 144 kts | 30° |
| 2026-05-04 06:09 | -27.41617 | 153.11053 | 336 ft | 141 kts | 30° |